sensor_id;sensor_type;location;lat;lon;timestamp;P1;durP1;ratioP1;P2;durP2;ratioP2
58071;SDS011;60383;46.626;18.866;2023-03-01T00:01:58;20.10;;;11.77;;
58071;SDS011;60383;46.626;18.866;2023-03-01T00:04:23;19.38;;;12.00;;
58071;SDS011;60383;46.626;18.866;2023-03-01T00:06:49;18.13;;;11.45;;
58071;SDS011;60383;46.626;18.866;2023-03-01T00:09:15;20.10;;;11.90;;
58071;SDS011;60383;46.626;18.866;2023-03-01T00:11:40;18.20;;;11.30;;
58071;SDS011;60383;46.626;18.866;2023-03-01T00:14:06;17.67;;;11.02;;
58071;SDS011;60383;46.626;18.866;2023-03-01T00:16:36;17.33;;;11.27;;
58071;SDS011;60383;46.626;18.866;2023-03-01T00:19:06;17.90;;;11.70;;
58071;SDS011;60383;46.626;18.866;2023-03-01T00:21:34;18.20;;;12.15;;
58071;SDS011;60383;46.626;18.866;2023-03-01T00:24:00;19.42;;;11.68;;
58071;SDS011;60383;46.626;18.866;2023-03-01T00:26:27;19.30;;;11.43;;
58071;SDS011;60383;46.626;18.866;2023-03-01T00:28:53;19.02;;;11.38;;
58071;SDS011;60383;46.626;18.866;2023-03-01T00:31:21;19.88;;;12.63;;
58071;SDS011;60383;46.626;18.866;2023-03-01T00:33:48;18.65;;;12.32;;
58071;SDS011;60383;46.626;18.866;2023-03-01T00:36:23;18.63;;;11.80;;
58071;SDS011;60383;46.626;18.866;2023-03-01T00:38:50;16.95;;;10.90;;
58071;SDS011;60383;46.626;18.866;2023-03-01T00:41:16;19.20;;;11.80;;
58071;SDS011;60383;46.626;18.866;2023-03-01T00:43:43;20.75;;;12.25;;
58071;SDS011;60383;46.626;18.866;2023-03-01T00:46:10;21.13;;;12.40;;
58071;SDS011;60383;46.626;18.866;2023-03-01T00:48:38;19.08;;;11.63;;
58071;SDS011;60383;46.626;18.866;2023-03-01T00:51:07;19.15;;;11.98;;
58071;SDS011;60383;46.626;18.866;2023-03-01T00:53:43;19.70;;;12.40;;
58071;SDS011;60383;46.626;18.866;2023-03-01T00:56:10;18.05;;;11.93;;
58071;SDS011;60383;46.626;18.866;2023-03-01T00:58:37;19.42;;;11.98;;
58071;SDS011;60383;46.626;18.866;2023-03-01T01:01:07;19.08;;;12.02;;
58071;SDS011;60383;46.626;18.866;2023-03-01T01:03:42;18.73;;;12.65;;
58071;SDS011;60383;46.626;18.866;2023-03-01T01:06:17;20.25;;;13.25;;
58071;SDS011;60383;46.626;18.866;2023-03-01T01:08:44;19.38;;;12.07;;
58071;SDS011;60383;46.626;18.866;2023-03-01T01:11:10;20.38;;;13.10;;
58071;SDS011;60383;46.626;18.866;2023-03-01T01:13:37;20.00;;;11.95;;
58071;SDS011;60383;46.626;18.866;2023-03-01T01:16:03;17.70;;;11.77;;
58071;SDS011;60383;46.626;18.866;2023-03-01T01:18:28;19.55;;;13.23;;
58071;SDS011;60383;46.626;18.866;2023-03-01T01:20:54;19.02;;;12.02;;
58071;SDS011;60383;46.626;18.866;2023-03-01T01:23:19;18.27;;;11.88;;
58071;SDS011;60383;46.626;18.866;2023-03-01T01:25:45;19.67;;;12.15;;
58071;SDS011;60383;46.626;18.866;2023-03-01T01:28:10;18.15;;;12.25;;
58071;SDS011;60383;46.626;18.866;2023-03-01T01:30:36;19.35;;;11.82;;
58071;SDS011;60383;46.626;18.866;2023-03-01T01:33:01;19.98;;;11.35;;
58071;SDS011;60383;46.626;18.866;2023-03-01T01:35:27;19.35;;;11.23;;
58071;SDS011;60383;46.626;18.866;2023-03-01T01:37:52;19.45;;;12.13;;
58071;SDS011;60383;46.626;18.866;2023-03-01T01:40:18;18.88;;;11.57;;
58071;SDS011;60383;46.626;18.866;2023-03-01T01:42:43;19.23;;;11.98;;
58071;SDS011;60383;46.626;18.866;2023-03-01T01:48:03;18.25;;;11.45;;
58071;SDS011;60383;46.626;18.866;2023-03-01T01:50:31;20.38;;;12.13;;
58071;SDS011;60383;46.626;18.866;2023-03-01T01:53:03;18.48;;;10.82;;
58071;SDS011;60383;46.626;18.866;2023-03-01T01:55:43;18.30;;;11.48;;
58071;SDS011;60383;46.626;18.866;2023-03-01T01:58:13;18.50;;;11.73;;
58071;SDS011;60383;46.626;18.866;2023-03-01T02:00:44;18.15;;;11.35;;
58071;SDS011;60383;46.626;18.866;2023-03-01T02:03:11;17.77;;;10.98;;
58071;SDS011;60383;46.626;18.866;2023-03-01T02:05:50;18.30;;;11.88;;
58071;SDS011;60383;46.626;18.866;2023-03-01T02:08:30;19.05;;;11.77;;
58071;SDS011;60383;46.626;18.866;2023-03-01T02:10:58;17.70;;;11.23;;
58071;SDS011;60383;46.626;18.866;2023-03-01T02:15:55;16.85;;;10.23;;
58071;SDS011;60383;46.626;18.866;2023-03-01T02:18:21;16.58;;;10.77;;
58071;SDS011;60383;46.626;18.866;2023-03-01T02:23:27;17.85;;;11.15;;
58071;SDS011;60383;46.626;18.866;2023-03-01T02:31:01;16.92;;;10.45;;
58071;SDS011;60383;46.626;18.866;2023-03-01T02:33:47;16.80;;;10.75;;
58071;SDS011;60383;46.626;18.866;2023-03-01T02:36:20;17.70;;;10.77;;
58071;SDS011;60383;46.626;18.866;2023-03-01T02:38:50;16.80;;;11.07;;
58071;SDS011;60383;46.626;18.866;2023-03-01T02:41:19;18.80;;;10.95;;
58071;SDS011;60383;46.626;18.866;2023-03-01T02:43:46;18.13;;;11.73;;
58071;SDS011;60383;46.626;18.866;2023-03-01T02:46:16;15.95;;;9.80;;
58071;SDS011;60383;46.626;18.866;2023-03-01T02:48:47;18.13;;;11.20;;
58071;SDS011;60383;46.626;18.866;2023-03-01T02:54:18;21.08;;;12.07;;
58071;SDS011;60383;46.626;18.866;2023-03-01T02:56:50;18.88;;;11.35;;
58071;SDS011;60383;46.626;18.866;2023-03-01T02:59:18;19.50;;;11.85;;
58071;SDS011;60383;46.626;18.866;2023-03-01T03:01:45;18.75;;;11.75;;
58071;SDS011;60383;46.626;18.866;2023-03-01T03:04:13;19.33;;;11.43;;
58071;SDS011;60383;46.626;18.866;2023-03-01T03:06:46;19.48;;;12.07;;
58071;SDS011;60383;46.626;18.866;2023-03-01T03:09:14;19.85;;;12.38;;
58071;SDS011;60383;46.626;18.866;2023-03-01T03:11:40;19.40;;;12.05;;
58071;SDS011;60383;46.626;18.866;2023-03-01T03:14:08;21.67;;;12.93;;
58071;SDS011;60383;46.626;18.866;2023-03-01T03:16:41;20.25;;;12.75;;
58071;SDS011;60383;46.626;18.866;2023-03-01T03:21:34;20.58;;;13.30;;
58071;SDS011;60383;46.626;18.866;2023-03-01T03:24:00;21.92;;;13.50;;
58071;SDS011;60383;46.626;18.866;2023-03-01T03:26:26;21.70;;;13.05;;
58071;SDS011;60383;46.626;18.866;2023-03-01T03:28:52;22.42;;;14.13;;
58071;SDS011;60383;46.626;18.866;2023-03-01T03:31:17;22.50;;;12.98;;
58071;SDS011;60383;46.626;18.866;2023-03-01T03:33:43;23.45;;;13.60;;
58071;SDS011;60383;46.626;18.866;2023-03-01T03:36:08;22.15;;;12.98;;
58071;SDS011;60383;46.626;18.866;2023-03-01T03:38:38;21.27;;;13.30;;
58071;SDS011;60383;46.626;18.866;2023-03-01T03:41:05;22.70;;;13.77;;
58071;SDS011;60383;46.626;18.866;2023-03-01T03:43:33;21.17;;;13.18;;
58071;SDS011;60383;46.626;18.866;2023-03-01T03:46:01;19.85;;;12.55;;
58071;SDS011;60383;46.626;18.866;2023-03-01T03:48:31;21.38;;;13.82;;
58071;SDS011;60383;46.626;18.866;2023-03-01T03:51:00;25.15;;;14.32;;
58071;SDS011;60383;46.626;18.866;2023-03-01T03:53:27;21.50;;;13.55;;
58071;SDS011;60383;46.626;18.866;2023-03-01T03:55:54;21.20;;;12.73;;
58071;SDS011;60383;46.626;18.866;2023-03-01T03:58:21;19.83;;;13.38;;
58071;SDS011;60383;46.626;18.866;2023-03-01T04:00:48;22.63;;;14.27;;
58071;SDS011;60383;46.626;18.866;2023-03-01T04:03:17;22.95;;;13.45;;
58071;SDS011;60383;46.626;18.866;2023-03-01T04:05:44;23.92;;;14.30;;
58071;SDS011;60383;46.626;18.866;2023-03-01T04:08:10;22.88;;;14.40;;
58071;SDS011;60383;46.626;18.866;2023-03-01T04:13:07;23.73;;;14.27;;
58071;SDS011;60383;46.626;18.866;2023-03-01T04:15:37;23.95;;;14.93;;
58071;SDS011;60383;46.626;18.866;2023-03-01T04:18:03;23.73;;;14.70;;
58071;SDS011;60383;46.626;18.866;2023-03-01T04:20:30;23.58;;;14.82;;
58071;SDS011;60383;46.626;18.866;2023-03-01T04:23:04;23.42;;;15.15;;
58071;SDS011;60383;46.626;18.866;2023-03-01T04:28:28;25.17;;;15.38;;
58071;SDS011;60383;46.626;18.866;2023-03-01T04:30:57;25.60;;;15.10;;
58071;SDS011;60383;46.626;18.866;2023-03-01T04:33:24;26.65;;;15.48;;
58071;SDS011;60383;46.626;18.866;2023-03-01T04:35:50;24.90;;;15.27;;
58071;SDS011;60383;46.626;18.866;2023-03-01T04:38:16;38.50;;;22.48;;
58071;SDS011;60383;46.626;18.866;2023-03-01T04:40:43;33.58;;;20.48;;
58071;SDS011;60383;46.626;18.866;2023-03-01T04:43:08;34.13;;;18.52;;
58071;SDS011;60383;46.626;18.866;2023-03-01T04:45:35;32.63;;;19.58;;
58071;SDS011;60383;46.626;18.866;2023-03-01T04:48:01;28.05;;;17.23;;
58071;SDS011;60383;46.626;18.866;2023-03-01T04:50:27;25.17;;;15.75;;
58071;SDS011;60383;46.626;18.866;2023-03-01T04:52:53;24.98;;;15.98;;
58071;SDS011;60383;46.626;18.866;2023-03-01T04:55:19;25.98;;;15.48;;
58071;SDS011;60383;46.626;18.866;2023-03-01T04:57:44;25.05;;;16.38;;
58071;SDS011;60383;46.626;18.866;2023-03-01T05:00:11;25.20;;;15.48;;
58071;SDS011;60383;46.626;18.866;2023-03-01T05:02:51;26.15;;;15.77;;
58071;SDS011;60383;46.626;18.866;2023-03-01T05:05:22;25.30;;;15.07;;
58071;SDS011;60383;46.626;18.866;2023-03-01T05:08:00;28.95;;;17.60;;
58071;SDS011;60383;46.626;18.866;2023-03-01T05:10:28;28.95;;;17.42;;
58071;SDS011;60383;46.626;18.866;2023-03-01T05:12:56;36.72;;;19.08;;
58071;SDS011;60383;46.626;18.866;2023-03-01T05:15:23;30.92;;;18.92;;
58071;SDS011;60383;46.626;18.866;2023-03-01T05:17:53;25.98;;;16.23;;
58071;SDS011;60383;46.626;18.866;2023-03-01T05:20:20;24.65;;;15.27;;
58071;SDS011;60383;46.626;18.866;2023-03-01T05:22:50;22.27;;;14.02;;
58071;SDS011;60383;46.626;18.866;2023-03-01T05:25:16;22.13;;;13.88;;
58071;SDS011;60383;46.626;18.866;2023-03-01T05:27:42;21.98;;;13.13;;
58071;SDS011;60383;46.626;18.866;2023-03-01T05:30:11;20.92;;;13.77;;
58071;SDS011;60383;46.626;18.866;2023-03-01T05:32:40;22.92;;;13.70;;
58071;SDS011;60383;46.626;18.866;2023-03-01T05:35:14;22.58;;;13.43;;
58071;SDS011;60383;46.626;18.866;2023-03-01T05:37:41;23.60;;;14.20;;
58071;SDS011;60383;46.626;18.866;2023-03-01T05:40:09;21.15;;;13.60;;
58071;SDS011;60383;46.626;18.866;2023-03-01T05:42:41;21.52;;;12.48;;
58071;SDS011;60383;46.626;18.866;2023-03-01T05:45:10;18.58;;;12.25;;
58071;SDS011;60383;46.626;18.866;2023-03-01T05:47:38;20.10;;;12.73;;
58071;SDS011;60383;46.626;18.866;2023-03-01T05:50:09;20.52;;;12.68;;
58071;SDS011;60383;46.626;18.866;2023-03-01T05:55:04;19.67;;;12.88;;
58071;SDS011;60383;46.626;18.866;2023-03-01T05:57:30;19.67;;;12.18;;
58071;SDS011;60383;46.626;18.866;2023-03-01T05:59:56;17.45;;;11.98;;
58071;SDS011;60383;46.626;18.866;2023-03-01T06:02:21;19.15;;;11.80;;
58071;SDS011;60383;46.626;18.866;2023-03-01T06:04:47;19.60;;;12.20;;
58071;SDS011;60383;46.626;18.866;2023-03-01T06:07:12;18.67;;;12.90;;
58071;SDS011;60383;46.626;18.866;2023-03-01T06:09:37;17.13;;;10.73;;
58071;SDS011;60383;46.626;18.866;2023-03-01T06:12:03;20.20;;;12.43;;
58071;SDS011;60383;46.626;18.866;2023-03-01T06:14:29;18.83;;;12.30;;
58071;SDS011;60383;46.626;18.866;2023-03-01T06:16:56;21.13;;;12.80;;
58071;SDS011;60383;46.626;18.866;2023-03-01T06:19:22;19.15;;;11.82;;
58071;SDS011;60383;46.626;18.866;2023-03-01T06:21:47;18.63;;;12.48;;
58071;SDS011;60383;46.626;18.866;2023-03-01T06:24:13;19.85;;;12.80;;
58071;SDS011;60383;46.626;18.866;2023-03-01T06:26:38;20.88;;;12.43;;
58071;SDS011;60383;46.626;18.866;2023-03-01T06:29:03;22.40;;;13.52;;
58071;SDS011;60383;46.626;18.866;2023-03-01T06:31:29;22.45;;;12.93;;
58071;SDS011;60383;46.626;18.866;2023-03-01T06:33:54;18.40;;;11.75;;
58071;SDS011;60383;46.626;18.866;2023-03-01T06:36:20;21.48;;;12.77;;
58071;SDS011;60383;46.626;18.866;2023-03-01T06:38:46;22.35;;;13.23;;
58071;SDS011;60383;46.626;18.866;2023-03-01T06:41:12;17.63;;;11.63;;
58071;SDS011;60383;46.626;18.866;2023-03-01T06:43:37;20.60;;;12.60;;
58071;SDS011;60383;46.626;18.866;2023-03-01T06:46:04;19.55;;;12.35;;
58071;SDS011;60383;46.626;18.866;2023-03-01T06:48:31;19.33;;;12.25;;
58071;SDS011;60383;46.626;18.866;2023-03-01T06:50:58;20.08;;;12.48;;
58071;SDS011;60383;46.626;18.866;2023-03-01T06:53:25;17.60;;;10.95;;
58071;SDS011;60383;46.626;18.866;2023-03-01T06:55:55;19.50;;;12.40;;
58071;SDS011;60383;46.626;18.866;2023-03-01T06:58:21;22.95;;;12.75;;
58071;SDS011;60383;46.626;18.866;2023-03-01T07:00:46;20.75;;;12.50;;
58071;SDS011;60383;46.626;18.866;2023-03-01T07:03:12;22.00;;;13.95;;
58071;SDS011;60383;46.626;18.866;2023-03-01T07:05:37;22.15;;;13.32;;
58071;SDS011;60383;46.626;18.866;2023-03-01T07:08:03;20.98;;;13.10;;
58071;SDS011;60383;46.626;18.866;2023-03-01T07:10:28;24.88;;;13.75;;
58071;SDS011;60383;46.626;18.866;2023-03-01T07:12:54;23.77;;;14.05;;
58071;SDS011;60383;46.626;18.866;2023-03-01T07:15:20;19.38;;;12.27;;
58071;SDS011;60383;46.626;18.866;2023-03-01T07:17:46;22.02;;;13.23;;
58071;SDS011;60383;46.626;18.866;2023-03-01T07:20:12;19.67;;;12.55;;
58071;SDS011;60383;46.626;18.866;2023-03-01T07:22:41;22.02;;;13.40;;
58071;SDS011;60383;46.626;18.866;2023-03-01T07:25:07;19.95;;;11.93;;
58071;SDS011;60383;46.626;18.866;2023-03-01T07:27:33;23.33;;;13.32;;
58071;SDS011;60383;46.626;18.866;2023-03-01T07:29:59;21.08;;;12.95;;
58071;SDS011;60383;46.626;18.866;2023-03-01T07:32:25;17.05;;;10.50;;
58071;SDS011;60383;46.626;18.866;2023-03-01T07:34:50;22.88;;;13.52;;
58071;SDS011;60383;46.626;18.866;2023-03-01T07:37:16;19.55;;;12.63;;
58071;SDS011;60383;46.626;18.866;2023-03-01T07:39:42;21.17;;;12.77;;
58071;SDS011;60383;46.626;18.866;2023-03-01T07:42:08;19.30;;;12.55;;
58071;SDS011;60383;46.626;18.866;2023-03-01T07:44:33;20.85;;;12.57;;
58071;SDS011;60383;46.626;18.866;2023-03-01T07:47:03;20.38;;;12.40;;
58071;SDS011;60383;46.626;18.866;2023-03-01T07:49:29;20.33;;;12.45;;
58071;SDS011;60383;46.626;18.866;2023-03-01T07:51:54;18.38;;;12.02;;
58071;SDS011;60383;46.626;18.866;2023-03-01T07:54:20;19.30;;;12.45;;
58071;SDS011;60383;46.626;18.866;2023-03-01T07:56:45;20.25;;;11.95;;
58071;SDS011;60383;46.626;18.866;2023-03-01T07:59:11;21.63;;;13.02;;
58071;SDS011;60383;46.626;18.866;2023-03-01T08:01:36;19.98;;;12.27;;
58071;SDS011;60383;46.626;18.866;2023-03-01T08:04:02;19.88;;;11.35;;
58071;SDS011;60383;46.626;18.866;2023-03-01T08:06:29;18.83;;;11.95;;
58071;SDS011;60383;46.626;18.866;2023-03-01T08:08:55;20.40;;;12.38;;
58071;SDS011;60383;46.626;18.866;2023-03-01T08:11:20;16.98;;;11.20;;
58071;SDS011;60383;46.626;18.866;2023-03-01T08:13:49;18.88;;;12.63;;
58071;SDS011;60383;46.626;18.866;2023-03-01T08:16:15;19.23;;;11.43;;
58071;SDS011;60383;46.626;18.866;2023-03-01T08:18:41;19.95;;;11.38;;
58071;SDS011;60383;46.626;18.866;2023-03-01T08:21:09;19.52;;;12.32;;
58071;SDS011;60383;46.626;18.866;2023-03-01T08:23:39;23.08;;;12.27;;
58071;SDS011;60383;46.626;18.866;2023-03-01T08:26:12;21.30;;;12.98;;
58071;SDS011;60383;46.626;18.866;2023-03-01T08:28:40;18.45;;;11.30;;
58071;SDS011;60383;46.626;18.866;2023-03-01T08:31:48;19.80;;;11.77;;
58071;SDS011;60383;46.626;18.866;2023-03-01T08:34:03;20.02;;;12.13;;
58071;SDS011;60383;46.626;18.866;2023-03-01T08:36:40;19.27;;;12.15;;
58071;SDS011;60383;46.626;18.866;2023-03-01T08:39:08;20.05;;;12.20;;
58071;SDS011;60383;46.626;18.866;2023-03-01T08:41:35;16.63;;;10.05;;
58071;SDS011;60383;46.626;18.866;2023-03-01T08:44:01;18.17;;;11.50;;
58071;SDS011;60383;46.626;18.866;2023-03-01T08:46:27;17.10;;;11.40;;
58071;SDS011;60383;46.626;18.866;2023-03-01T08:48:54;16.58;;;12.20;;
58071;SDS011;60383;46.626;18.866;2023-03-01T08:51:20;16.92;;;11.10;;
58071;SDS011;60383;46.626;18.866;2023-03-01T08:53:46;22.23;;;12.65;;
58071;SDS011;60383;46.626;18.866;2023-03-01T08:56:13;16.35;;;10.57;;
58071;SDS011;60383;46.626;18.866;2023-03-01T08:58:39;18.95;;;11.50;;
58071;SDS011;60383;46.626;18.866;2023-03-01T09:01:11;17.85;;;11.02;;
58071;SDS011;60383;46.626;18.866;2023-03-01T09:03:39;16.92;;;11.63;;
58071;SDS011;60383;46.626;18.866;2023-03-01T09:06:05;17.58;;;10.73;;
58071;SDS011;60383;46.626;18.866;2023-03-01T09:08:36;16.63;;;11.07;;
58071;SDS011;60383;46.626;18.866;2023-03-01T09:13:29;17.85;;;10.90;;
58071;SDS011;60383;46.626;18.866;2023-03-01T09:15:56;16.67;;;10.30;;
58071;SDS011;60383;46.626;18.866;2023-03-01T09:18:22;18.35;;;11.63;;
58071;SDS011;60383;46.626;18.866;2023-03-01T09:20:48;18.20;;;11.20;;
58071;SDS011;60383;46.626;18.866;2023-03-01T09:23:13;16.13;;;10.63;;
58071;SDS011;60383;46.626;18.866;2023-03-01T09:25:39;16.48;;;10.60;;
58071;SDS011;60383;46.626;18.866;2023-03-01T09:28:04;17.25;;;11.45;;
58071;SDS011;60383;46.626;18.866;2023-03-01T09:30:30;15.48;;;10.23;;
58071;SDS011;60383;46.626;18.866;2023-03-01T09:32:58;15.48;;;10.73;;
58071;SDS011;60383;46.626;18.866;2023-03-01T09:35:24;18.52;;;11.05;;
58071;SDS011;60383;46.626;18.866;2023-03-01T09:37:49;17.38;;;10.30;;
58071;SDS011;60383;46.626;18.866;2023-03-01T09:40:17;17.25;;;11.25;;
58071;SDS011;60383;46.626;18.866;2023-03-01T09:43:06;19.58;;;12.02;;
58071;SDS011;60383;46.626;18.866;2023-03-01T09:45:54;14.88;;;10.45;;
58071;SDS011;60383;46.626;18.866;2023-03-01T09:48:25;17.58;;;10.93;;
58071;SDS011;60383;46.626;18.866;2023-03-01T09:50:54;17.03;;;10.83;;
58071;SDS011;60383;46.626;18.866;2023-03-01T09:53:21;16.50;;;10.93;;
58071;SDS011;60383;46.626;18.866;2023-03-01T10:06:44;19.50;;;11.75;;
58071;SDS011;60383;46.626;18.866;2023-03-01T10:09:20;17.70;;;11.82;;
58071;SDS011;60383;46.626;18.866;2023-03-01T10:11:50;16.67;;;11.02;;
58071;SDS011;60383;46.626;18.866;2023-03-01T10:16:58;18.02;;;11.43;;
58071;SDS011;60383;46.626;18.866;2023-03-01T10:19:32;17.38;;;11.55;;
58071;SDS011;60383;46.626;18.866;2023-03-01T10:22:16;16.05;;;11.05;;
58071;SDS011;60383;46.626;18.866;2023-03-01T10:24:48;18.02;;;11.20;;
58071;SDS011;60383;46.626;18.866;2023-03-01T10:32:45;16.33;;;10.48;;
58071;SDS011;60383;46.626;18.866;2023-03-01T10:46:27;16.98;;;10.18;;
58071;SDS011;60383;46.626;18.866;2023-03-01T10:49:13;18.00;;;11.38;;
58071;SDS011;60383;46.626;18.866;2023-03-01T10:51:40;17.00;;;11.48;;
58071;SDS011;60383;46.626;18.866;2023-03-01T10:56:58;21.33;;;12.52;;
58071;SDS011;60383;46.626;18.866;2023-03-01T10:59:27;18.65;;;11.80;;
58071;SDS011;60383;46.626;18.866;2023-03-01T11:02:01;17.60;;;11.50;;
58071;SDS011;60383;46.626;18.866;2023-03-01T11:04:38;18.20;;;11.75;;
58071;SDS011;60383;46.626;18.866;2023-03-01T11:07:04;17.73;;;11.48;;
58071;SDS011;60383;46.626;18.866;2023-03-01T11:09:32;17.63;;;11.15;;
58071;SDS011;60383;46.626;18.866;2023-03-01T11:12:03;16.67;;;11.30;;
58071;SDS011;60383;46.626;18.866;2023-03-01T11:14:35;16.52;;;10.98;;
58071;SDS011;60383;46.626;18.866;2023-03-01T11:17:04;16.45;;;10.85;;
58071;SDS011;60383;46.626;18.866;2023-03-01T11:19:31;17.02;;;11.52;;
58071;SDS011;60383;46.626;18.866;2023-03-01T11:24:42;16.48;;;11.02;;
58071;SDS011;60383;46.626;18.866;2023-03-01T11:27:18;15.70;;;11.13;;
58071;SDS011;60383;46.626;18.866;2023-03-01T11:29:45;16.55;;;11.35;;
58071;SDS011;60383;46.626;18.866;2023-03-01T11:32:16;17.10;;;11.73;;
58071;SDS011;60383;46.626;18.866;2023-03-01T11:34:49;16.45;;;10.48;;
58071;SDS011;60383;46.626;18.866;2023-03-01T11:37:40;16.90;;;10.75;;
58071;SDS011;60383;46.626;18.866;2023-03-01T11:40:16;16.15;;;10.98;;
58071;SDS011;60383;46.626;18.866;2023-03-01T11:42:50;15.25;;;10.32;;
58071;SDS011;60383;46.626;18.866;2023-03-01T11:50:47;16.33;;;10.70;;
58071;SDS011;60383;46.626;18.866;2023-03-01T11:56:10;14.15;;;9.63;;
58071;SDS011;60383;46.626;18.866;2023-03-01T12:04:58;15.77;;;10.55;;
58071;SDS011;60383;46.626;18.866;2023-03-01T12:07:31;18.48;;;10.40;;
58071;SDS011;60383;46.626;18.866;2023-03-01T12:15:34;15.25;;;10.80;;
58071;SDS011;60383;46.626;18.866;2023-03-01T12:20:58;17.67;;;10.55;;
58071;SDS011;60383;46.626;18.866;2023-03-01T12:45:23;16.70;;;10.77;;
58071;SDS011;60383;46.626;18.866;2023-03-01T12:51:04;13.20;;;8.45;;
58071;SDS011;60383;46.626;18.866;2023-03-01T12:53:36;17.10;;;10.77;;
58071;SDS011;60383;46.626;18.866;2023-03-01T12:56:07;16.58;;;10.98;;
58071;SDS011;60383;46.626;18.866;2023-03-01T13:01:49;15.43;;;10.50;;
58071;SDS011;60383;46.626;18.866;2023-03-01T13:07:23;14.82;;;10.05;;
58071;SDS011;60383;46.626;18.866;2023-03-01T13:17:48;14.00;;;9.38;;
58071;SDS011;60383;46.626;18.866;2023-03-01T13:20:45;14.60;;;10.50;;
58071;SDS011;60383;46.626;18.866;2023-03-01T13:29:11;14.40;;;9.80;;
58071;SDS011;60383;46.626;18.866;2023-03-01T13:44:30;14.73;;;9.75;;
58071;SDS011;60383;46.626;18.866;2023-03-01T13:49:41;15.63;;;10.40;;
58071;SDS011;60383;46.626;18.866;2023-03-01T13:55:03;16.58;;;10.90;;
58071;SDS011;60383;46.626;18.866;2023-03-01T13:57:35;15.73;;;10.98;;
58071;SDS011;60383;46.626;18.866;2023-03-01T14:00:04;17.00;;;10.27;;
58071;SDS011;60383;46.626;18.866;2023-03-01T14:02:32;14.63;;;10.35;;
58071;SDS011;60383;46.626;18.866;2023-03-01T14:04:59;12.90;;;9.60;;
58071;SDS011;60383;46.626;18.866;2023-03-01T14:07:26;12.73;;;8.98;;
58071;SDS011;60383;46.626;18.866;2023-03-01T14:09:56;14.30;;;8.52;;
58071;SDS011;60383;46.626;18.866;2023-03-01T14:22:52;15.48;;;9.95;;
58071;SDS011;60383;46.626;18.866;2023-03-01T14:25:21;13.73;;;9.35;;
58071;SDS011;60383;46.626;18.866;2023-03-01T14:30:27;16.25;;;9.68;;
58071;SDS011;60383;46.626;18.866;2023-03-01T14:32:59;15.38;;;9.35;;
58071;SDS011;60383;46.626;18.866;2023-03-01T14:35:27;14.15;;;9.27;;
58071;SDS011;60383;46.626;18.866;2023-03-01T14:37:54;15.02;;;10.23;;
58071;SDS011;60383;46.626;18.866;2023-03-01T14:40:21;15.93;;;9.88;;
58071;SDS011;60383;46.626;18.866;2023-03-01T14:42:50;18.10;;;10.20;;
58071;SDS011;60383;46.626;18.866;2023-03-01T14:45:17;13.55;;;9.52;;
58071;SDS011;60383;46.626;18.866;2023-03-01T14:47:43;14.00;;;9.80;;
58071;SDS011;60383;46.626;18.866;2023-03-01T14:52:44;12.38;;;8.52;;
58071;SDS011;60383;46.626;18.866;2023-03-01T14:55:15;14.93;;;9.80;;
58071;SDS011;60383;46.626;18.866;2023-03-01T15:00:19;13.75;;;8.90;;
58071;SDS011;60383;46.626;18.866;2023-03-01T15:02:47;19.08;;;11.13;;
58071;SDS011;60383;46.626;18.866;2023-03-01T15:05:15;14.15;;;9.38;;
58071;SDS011;60383;46.626;18.866;2023-03-01T15:07:48;12.20;;;8.10;;
58071;SDS011;60383;46.626;18.866;2023-03-01T15:10:17;14.02;;;9.35;;
58071;SDS011;60383;46.626;18.866;2023-03-01T15:12:45;14.60;;;9.38;;
58071;SDS011;60383;46.626;18.866;2023-03-01T15:18:26;13.15;;;9.10;;
58071;SDS011;60383;46.626;18.866;2023-03-01T15:20:54;13.10;;;8.50;;
58071;SDS011;60383;46.626;18.866;2023-03-01T15:23:24;15.27;;;9.10;;
58071;SDS011;60383;46.626;18.866;2023-03-01T15:25:52;13.48;;;8.68;;
58071;SDS011;60383;46.626;18.866;2023-03-01T15:30:53;12.67;;;9.67;;
58071;SDS011;60383;46.626;18.866;2023-03-01T15:35:52;14.40;;;9.20;;
58071;SDS011;60383;46.626;18.866;2023-03-01T15:41:27;14.32;;;9.63;;
58071;SDS011;60383;46.626;18.866;2023-03-01T15:43:58;12.60;;;8.50;;
58071;SDS011;60383;46.626;18.866;2023-03-01T15:46:28;14.05;;;9.75;;
58071;SDS011;60383;46.626;18.866;2023-03-01T15:48:58;12.45;;;8.75;;
58071;SDS011;60383;46.626;18.866;2023-03-01T15:51:30;12.38;;;8.15;;
58071;SDS011;60383;46.626;18.866;2023-03-01T15:54:02;14.25;;;9.50;;
58071;SDS011;60383;46.626;18.866;2023-03-01T15:56:37;13.20;;;9.50;;
58071;SDS011;60383;46.626;18.866;2023-03-01T15:59:03;13.98;;;9.50;;
58071;SDS011;60383;46.626;18.866;2023-03-01T16:01:29;12.75;;;10.10;;
58071;SDS011;60383;46.626;18.866;2023-03-01T16:03:55;16.48;;;11.18;;
58071;SDS011;60383;46.626;18.866;2023-03-01T16:06:23;17.60;;;12.57;;
58071;SDS011;60383;46.626;18.866;2023-03-01T16:08:48;17.33;;;11.32;;
58071;SDS011;60383;46.626;18.866;2023-03-01T16:11:16;18.45;;;11.80;;
58071;SDS011;60383;46.626;18.866;2023-03-01T16:13:42;17.85;;;12.07;;
58071;SDS011;60383;46.626;18.866;2023-03-01T16:16:09;23.77;;;15.93;;
58071;SDS011;60383;46.626;18.866;2023-03-01T16:18:37;24.88;;;15.73;;
58071;SDS011;60383;46.626;18.866;2023-03-01T16:21:03;22.02;;;15.55;;
58071;SDS011;60383;46.626;18.866;2023-03-01T16:23:29;18.15;;;12.43;;
58071;SDS011;60383;46.626;18.866;2023-03-01T16:25:58;18.38;;;12.38;;
58071;SDS011;60383;46.626;18.866;2023-03-01T16:28:24;19.07;;;12.87;;
58071;SDS011;60383;46.626;18.866;2023-03-01T16:30:49;30.60;;;16.85;;
58071;SDS011;60383;46.626;18.866;2023-03-01T16:33:15;32.00;;;17.50;;
58071;SDS011;60383;46.626;18.866;2023-03-01T16:35:41;28.83;;;16.63;;
58071;SDS011;60383;46.626;18.866;2023-03-01T16:38:06;22.95;;;14.52;;
58071;SDS011;60383;46.626;18.866;2023-03-01T16:40:32;22.48;;;15.18;;
58071;SDS011;60383;46.626;18.866;2023-03-01T16:42:58;25.35;;;14.73;;
58071;SDS011;60383;46.626;18.866;2023-03-01T16:45:26;22.83;;;13.73;;
58071;SDS011;60383;46.626;18.866;2023-03-01T16:47:53;19.40;;;13.95;;
58071;SDS011;60383;46.626;18.866;2023-03-01T16:50:19;18.17;;;13.05;;
58071;SDS011;60383;46.626;18.866;2023-03-01T16:52:45;20.13;;;13.50;;
58071;SDS011;60383;46.626;18.866;2023-03-01T16:55:10;19.40;;;12.95;;
58071;SDS011;60383;46.626;18.866;2023-03-01T16:57:36;19.10;;;12.70;;
58071;SDS011;60383;46.626;18.866;2023-03-01T17:00:05;23.52;;;14.70;;
58071;SDS011;60383;46.626;18.866;2023-03-01T17:02:33;25.20;;;17.23;;
58071;SDS011;60383;46.626;18.866;2023-03-01T17:04:59;24.17;;;16.58;;
58071;SDS011;60383;46.626;18.866;2023-03-01T17:07:24;29.52;;;17.73;;
58071;SDS011;60383;46.626;18.866;2023-03-01T17:09:50;25.75;;;17.90;;
58071;SDS011;60383;46.626;18.866;2023-03-01T17:12:15;28.67;;;18.23;;
58071;SDS011;60383;46.626;18.866;2023-03-01T17:14:41;27.63;;;19.17;;
58071;SDS011;60383;46.626;18.866;2023-03-01T17:17:10;31.35;;;21.35;;
58071;SDS011;60383;46.626;18.866;2023-03-01T17:19:36;29.48;;;19.77;;